Dera Ismail Khan Weather



Dera Ismail Khan's Current Weather

Temprature 28.39o clear sky

clear sky

Rain: 0 %

Min Temprature28.39o
Max Temprature28.39o
Humidity35
Wind Speed5.89 m/h
Sun Rise05:14:43
Sun Set19:12:00
Current Time: 24-May-2022 08:05:01
Lat/Lon: 31.8327, 70.9024




Dera Ismail Khan's Geo Location



Dera Ismail Khan's Weather Forecast

Time Overall Temp Min Temp Max Temp Humidity Wind Speed Rain
24-May-2022 (Tue)
11:00:00 clear sky 29.830 29.830 32.710 31 3.86 m/h 0 %
14:00:00 clear sky 33.520 33.520 36.080 23 3.58 m/h 0 %
17:00:00 clear sky 36.820 36.820 36.820 16 3.47 m/h 0 %
20:00:00 clear sky 33.600 33.600 33.600 19 3.67 m/h 0 %
23:00:00 clear sky 31.300 31.300 31.300 23 3.43 m/h 0 %
25-May-2022 (Wed)
02:00:00 clear sky 29.350 29.350 29.350 26 1.51 m/h 0 %
05:00:00 clear sky 27.860 27.860 27.860 29 1.96 m/h 0 %
08:00:00 clear sky 32.860 32.860 32.860 21 2.85 m/h 0 %
11:00:00 clear sky 37.750 37.750 37.750 15 3.71 m/h 0 %
14:00:00 clear sky 40.500 40.500 40.500 12 2.62 m/h 0 %
17:00:00 clear sky 41.530 41.530 41.530 10 3 m/h 0 %
20:00:00 clear sky 37.050 37.050 37.050 14 3.75 m/h 0 %
23:00:00 clear sky 34.780 34.780 34.780 15 3.54 m/h 0 %
26-May-2022 (Thu)
02:00:00 clear sky 31.680 31.680 31.680 21 2.11 m/h 0 %
05:00:00 clear sky 29.650 29.650 29.650 25 1.29 m/h 0 %
08:00:00 clear sky 35.170 35.170 35.170 18 2.97 m/h 0 %
11:00:00 clear sky 40.800 40.800 40.800 12 3.12 m/h 0 %
14:00:00 clear sky 44.340 44.340 44.340 9 2.84 m/h 0 %
17:00:00 clear sky 45.160 45.160 45.160 7 3.37 m/h 0 %
20:00:00 clear sky 40.360 40.360 40.360 9 3.27 m/h 0 %
23:00:00 clear sky 36.910 36.910 36.910 12 4.29 m/h 0 %
27-May-2022 (Fri)
02:00:00 clear sky 33.810 33.810 33.810 17 2.84 m/h 0 %
05:00:00 clear sky 32.280 32.280 32.280 19 2.69 m/h 0 %
08:00:00 clear sky 37.430 37.430 37.430 15 3.07 m/h 0 %
11:00:00 clear sky 43.400 43.400 43.400 10 2.13 m/h 0 %
14:00:00 clear sky 46.980 46.980 46.980 5 1.64 m/h 0 %
17:00:00 clear sky 47.470 47.470 47.470 4 4.23 m/h 0 %
20:00:00 clear sky 41.640 41.640 41.640 6 4.04 m/h 0 %
23:00:00 clear sky 38.920 38.920 38.920 7 4.14 m/h 0 %
28-May-2022 (Sat)
02:00:00 clear sky 36.190 36.190 36.190 8 4.39 m/h 0 %
05:00:00 clear sky 33.040 33.040 33.040 23 3.57 m/h 0 %
08:00:00 clear sky 39.410 39.410 39.410 13 7.78 m/h 0 %
11:00:00 clear sky 44.520 44.520 44.520 10 9.34 m/h 0 %
14:00:00 clear sky 46.810 46.810 46.810 8 8.76 m/h 0 %
17:00:00 clear sky 46.390 46.390 46.390 4 5.55 m/h 0 %
20:00:00 clear sky 39.760 39.760 39.760 13 10.19 m/h 0 %
23:00:00 few clouds 38.200 38.200 38.200 14 10.01 m/h 0 %
29-May-2022 (Sun)
02:00:00 broken clouds 36.310 36.310 36.310 16 6.48 m/h 0 %
05:00:00 scattered clouds 34.210 34.210 34.210 20 3.69 m/h 0 %
08:00:00 clear sky 37.440 37.440 37.440 18 5.45 m/h 0 %


Dera Ismail Khan's Tourist Spots

Historical Places in Dera Ismail Khan

Famous Cities (61)